createdAt,value
2019-05-14T00:00:21.874Z,39.67
2019-05-14T00:01:26.552Z,39.53
2019-05-14T00:02:31.774Z,39.49
2019-05-14T00:03:36.323Z,39.62
2019-05-14T00:04:42.378Z,39.71
2019-05-14T00:05:46.909Z,39.64
2019-05-14T00:06:52.013Z,39.61
2019-05-14T00:07:56.577Z,39.38
2019-05-14T00:09:01.516Z,39.43
2019-05-14T00:10:07.779Z,39.51
2019-05-14T00:11:13.013Z,39.33
2019-05-14T00:12:17.784Z,39.50
2019-05-14T00:13:22.326Z,39.49
2019-05-14T00:14:37.239Z,39.54
2019-05-14T00:15:33.028Z,39.55
2019-05-14T00:16:37.388Z,39.59
2019-05-14T00:17:42.159Z,39.77
2019-05-14T00:18:46.802Z,39.75
2019-05-14T00:20:05.527Z,39.83
2019-05-14T00:20:57.588Z,39.79
2019-05-14T00:22:02.245Z,39.87
2019-05-14T00:23:06.612Z,39.78
2019-05-14T00:24:11.514Z,39.71
2019-05-14T00:25:16.386Z,39.52
2019-05-14T00:26:21.589Z,39.36
2019-05-14T00:27:26.198Z,39.42
2019-05-14T00:28:31.710Z,39.69
2019-05-14T00:29:36.631Z,39.68
2019-05-14T00:30:42.266Z,39.78
2019-05-14T00:31:47.140Z,39.74
2019-05-14T00:32:52.147Z,39.96
2019-05-14T00:33:56.648Z,40.02
2019-05-14T00:35:02.149Z,39.92
2019-05-14T00:36:06.628Z,40.00
2019-05-14T00:37:11.706Z,39.86
2019-05-14T00:38:16.245Z,39.87
2019-05-14T00:39:21.383Z,39.90
2019-05-14T00:40:25.913Z,39.87
2019-05-14T00:41:31.228Z,39.71
2019-05-14T00:42:35.696Z,39.86
2019-05-14T00:43:41.574Z,39.98
2019-05-14T00:44:54.282Z,39.88
2019-05-14T00:45:52.797Z,40.05
2019-05-14T00:46:58.202Z,40.00
2019-05-14T00:48:02.826Z,39.81
2019-05-14T00:49:07.212Z,39.66
2019-05-14T00:50:12.054Z,39.83
2019-05-14T00:51:16.563Z,39.91
2019-05-14T00:52:22.221Z,39.90
2019-05-14T00:53:26.718Z,40.02
2019-05-14T00:54:32.231Z,39.94
2019-05-14T00:55:36.700Z,40.00
2019-05-14T00:56:41.861Z,40.04
2019-05-14T00:57:46.561Z,40.06
2019-05-14T00:58:52.381Z,40.17
2019-05-14T00:59:56.716Z,40.35
2019-05-14T01:01:01.775Z,40.15
2019-05-14T01:02:07.573Z,40.35
2019-05-14T01:03:12.302Z,40.20
2019-05-14T01:04:16.692Z,40.33
2019-05-14T01:05:21.652Z,40.24
2019-05-14T01:06:26.096Z,40.18
2019-05-14T01:07:31.656Z,40.06
2019-05-14T01:08:36.249Z,40.08
2019-05-14T01:09:42.086Z,40.32
2019-05-14T01:10:46.719Z,40.32
2019-05-14T01:11:51.437Z,40.40
2019-05-14T01:12:55.837Z,40.22
2019-05-14T01:14:01.768Z,40.34
2019-05-14T01:15:10.806Z,40.34
2019-05-14T01:16:13.776Z,40.15
2019-05-14T01:17:18.165Z,40.33
2019-05-14T01:18:22.734Z,40.34
2019-05-14T01:19:27.115Z,40.32
2019-05-14T01:20:32.100Z,40.34
2019-05-14T01:21:36.504Z,40.28
2019-05-14T01:22:42.284Z,40.41
2019-05-14T01:23:46.787Z,40.38
2019-05-14T01:24:52.196Z,40.42
2019-05-14T01:25:56.737Z,40.42
2019-05-14T01:27:01.826Z,40.49
2019-05-14T01:28:06.287Z,40.47
2019-05-14T01:29:12.163Z,40.50
2019-05-14T01:30:16.697Z,40.75
2019-05-14T01:31:22.066Z,40.76
2019-05-14T01:32:26.564Z,40.63
2019-05-14T01:33:31.820Z,40.93
2019-05-14T01:34:36.521Z,41.02
2019-05-14T01:35:42.066Z,40.97
2019-05-14T01:36:46.740Z,40.81
2019-05-14T01:37:52.190Z,40.75
2019-05-14T01:38:57.726Z,41.00
2019-05-14T01:40:04.205Z,40.94
2019-05-14T01:41:08.573Z,41.04
2019-05-14T01:42:13.248Z,41.06
2019-05-14T01:43:17.765Z,41.07
2019-05-14T01:44:22.353Z,40.88
2019-05-14T01:45:28.345Z,40.92
2019-05-14T01:46:33.221Z,41.32
2019-05-14T01:47:37.582Z,41.20
2019-05-14T01:48:42.143Z,41.14
2019-05-14T01:49:46.588Z,41.39
2019-05-14T01:50:52.066Z,41.40
2019-05-14T01:51:56.736Z,41.43
2019-05-14T01:53:01.406Z,41.43
2019-05-14T01:54:05.749Z,41.58
2019-05-14T01:55:11.448Z,41.49
2019-05-14T01:56:15.888Z,41.66
2019-05-14T01:57:21.966Z,41.72
2019-05-14T01:58:26.534Z,41.67
2019-05-14T01:59:32.217Z,41.66
2019-05-14T02:00:36.708Z,41.67
2019-05-14T02:01:41.755Z,41.63
2019-05-14T02:02:46.152Z,41.48
2019-05-14T02:03:51.795Z,41.71
2019-05-14T02:04:56.376Z,41.77
2019-05-14T02:06:01.396Z,41.69
2019-05-14T02:07:05.980Z,41.33
2019-05-14T02:08:12.115Z,41.60
2019-05-14T02:09:16.572Z,41.63
2019-05-14T02:10:22.247Z,41.85
2019-05-14T02:11:26.697Z,42.14
2019-05-14T02:12:31.637Z,42.25
2019-05-14T02:13:37.132Z,42.39
2019-05-14T02:14:42.377Z,42.50
2019-05-14T02:15:46.984Z,42.48
2019-05-14T02:16:52.520Z,42.38
2019-05-14T02:17:56.879Z,42.49
2019-05-14T02:19:01.550Z,42.47
2019-05-14T02:20:06.281Z,42.55
2019-05-14T02:21:11.797Z,42.39
2019-05-14T02:22:16.284Z,42.56
2019-05-14T02:23:22.657Z,42.41
2019-05-14T02:24:26.944Z,42.39
2019-05-14T02:25:32.171Z,42.54
2019-05-14T02:26:36.626Z,42.67
2019-05-14T02:27:41.542Z,42.61
2019-05-14T02:28:45.916Z,42.62
2019-05-14T02:29:51.844Z,42.54
2019-05-14T02:31:02.657Z,42.49
2019-05-14T02:32:02.786Z,42.48
2019-05-14T02:33:09.252Z,42.63
2019-05-14T02:34:13.374Z,42.58
2019-05-14T02:35:20.181Z,42.71
2019-05-14T02:36:24.100Z,43.04
2019-05-14T02:37:30.068Z,42.80
2019-05-14T02:38:34.847Z,42.63
2019-05-14T02:39:41.053Z,42.74
2019-05-14T02:40:45.515Z,42.74
2019-05-14T02:41:50.141Z,42.92
2019-05-14T02:42:54.621Z,42.71
2019-05-14T02:43:59.496Z,42.67
2019-05-14T02:45:08.935Z,42.67
2019-05-14T02:46:17.177Z,42.83
2019-05-14T02:47:19.719Z,43.06
2019-05-14T02:48:24.362Z,43.21
2019-05-14T02:49:29.960Z,43.42
2019-05-14T02:50:34.662Z,43.28
2019-05-14T02:51:39.360Z,43.36
2019-05-14T02:52:43.778Z,43.48
2019-05-14T02:53:49.858Z,43.22
2019-05-14T02:54:54.297Z,43.42
2019-05-14T02:55:59.495Z,43.33
2019-05-14T02:57:04.918Z,43.17
2019-05-14T02:58:10.099Z,43.34
2019-05-14T02:59:14.628Z,43.68
2019-05-14T03:00:19.494Z,43.96
2019-05-14T03:01:23.923Z,43.76
2019-05-14T03:02:29.698Z,43.76
2019-05-14T03:03:34.239Z,43.86
2019-05-14T03:04:39.766Z,43.81
2019-05-14T03:05:44.311Z,44.04
2019-05-14T03:06:49.875Z,44.02
2019-05-14T03:07:54.505Z,43.98
2019-05-14T03:09:00.049Z,44.12
2019-05-14T03:10:09.620Z,44.10
2019-05-14T03:11:13.753Z,44.21
2019-05-14T03:12:19.362Z,44.20
2019-05-14T03:13:24.127Z,44.28
2019-05-14T03:14:30.113Z,44.40
2019-05-14T03:15:34.822Z,44.46
2019-05-14T03:16:40.756Z,44.67
2019-05-14T03:17:45.461Z,44.54
2019-05-14T03:18:50.440Z,44.64
2019-05-14T03:19:55.208Z,44.45
2019-05-14T03:21:00.814Z,44.43
2019-05-14T03:22:05.816Z,44.63
2019-05-14T03:23:18.046Z,44.65
2019-05-14T03:24:19.445Z,44.71
2019-05-14T03:25:22.874Z,44.86
2019-05-14T03:26:29.453Z,44.71
2019-05-14T03:27:33.617Z,44.74
2019-05-14T03:28:39.932Z,45.00
2019-05-14T03:29:44.667Z,45.10
2019-05-14T03:30:51.975Z,45.02
2019-05-14T03:31:55.400Z,44.91
2019-05-14T03:33:02.625Z,44.72
2019-05-14T03:34:06.027Z,44.71
2019-05-14T03:35:13.504Z,44.76
2019-05-14T03:36:23.953Z,44.80
2019-05-14T03:37:24.412Z,44.85
2019-05-14T03:38:30.226Z,44.82
2019-05-14T03:39:35.192Z,44.92
2019-05-14T03:40:40.119Z,45.12
2019-05-14T03:41:45.217Z,45.19
2019-05-14T03:42:49.567Z,45.12
2019-05-14T03:43:55.213Z,44.92
2019-05-14T03:44:59.957Z,44.92
2019-05-14T03:46:05.513Z,45.10
2019-05-14T03:47:10.660Z,45.21
2019-05-14T03:48:18.989Z,45.30
2019-05-14T03:49:22.253Z,45.32
2019-05-14T03:50:29.686Z,45.40
2019-05-14T03:51:34.156Z,45.61
2019-05-14T03:52:39.915Z,45.84
2019-05-14T03:53:59.965Z,45.58
2019-05-14T03:54:51.119Z,45.42
2019-05-14T03:55:55.593Z,45.32
2019-05-14T03:57:00.592Z,45.51
2019-05-14T03:58:05.056Z,45.37
2019-05-14T03:59:10.161Z,45.58
2019-05-14T04:00:14.646Z,45.50
2019-05-14T04:01:20.157Z,45.81
2019-05-14T04:02:24.904Z,45.68
2019-05-14T04:03:30.794Z,45.60
2019-05-14T04:04:35.155Z,45.58
2019-05-14T04:05:40.264Z,45.60
2019-05-14T04:06:44.849Z,45.67
2019-05-14T04:07:50.440Z,45.56
2019-05-14T04:08:55.550Z,45.54
2019-05-14T04:10:00.142Z,45.57
2019-05-14T04:11:04.669Z,45.98
2019-05-14T04:12:10.311Z,46.17
2019-05-14T04:13:15.506Z,46.20
2019-05-14T04:14:20.373Z,46.00
2019-05-14T04:15:24.966Z,45.92
2019-05-14T04:16:29.606Z,45.93
2019-05-14T04:17:38.820Z,46.18
2019-05-14T04:18:41.902Z,46.25
2019-05-14T04:19:49.260Z,46.19
2019-05-14T04:20:52.705Z,46.17
2019-05-14T04:21:59.883Z,46.05
2019-05-14T04:23:03.344Z,46.23
2019-05-14T04:24:09.742Z,46.24
2019-05-14T04:25:13.961Z,46.17
2019-05-14T04:26:20.181Z,46.16
2019-05-14T04:27:29.585Z,46.17
2019-05-14T04:28:34.633Z,45.97
2019-05-14T04:29:41.597Z,46.17
2019-05-14T04:30:49.120Z,46.00
2019-05-14T04:31:52.312Z,46.45
2019-05-14T04:32:59.356Z,46.42
2019-05-14T04:34:04.941Z,46.37
2019-05-14T04:35:09.696Z,46.43
2019-05-14T04:36:14.713Z,46.31
2019-05-14T04:37:20.112Z,46.04
2019-05-14T04:38:24.963Z,46.12
2019-05-14T04:39:31.508Z,46.16
2019-05-14T04:40:36.085Z,46.60
2019-05-14T04:41:40.520Z,46.38
2019-05-14T04:42:45.175Z,46.55
2019-05-14T04:43:50.424Z,46.92
2019-05-14T04:44:55.077Z,46.97
2019-05-14T04:45:59.591Z,46.87
2019-05-14T04:47:22.846Z,46.93
2019-05-14T04:48:27.132Z,46.84
2019-05-14T04:49:19.905Z,46.81
2019-05-14T04:50:25.698Z,47.51
2019-05-14T04:51:31.545Z,47.67
2019-05-14T04:52:36.008Z,47.80
2019-05-14T04:53:40.834Z,47.75
2019-05-14T04:54:45.318Z,47.57
2019-05-14T04:55:49.971Z,47.41
2019-05-14T04:56:54.410Z,47.36
2019-05-14T04:57:59.320Z,47.26
2019-05-14T04:59:04.312Z,47.16
2019-05-14T05:00:12.323Z,47.36
2019-05-14T05:01:16.161Z,47.14
2019-05-14T05:02:20.713Z,47.17
2019-05-14T05:03:25.239Z,47.16
2019-05-14T05:04:30.355Z,47.10
2019-05-14T05:05:39.116Z,46.98
2019-05-14T05:06:42.091Z,47.19
2019-05-14T05:07:49.190Z,47.55
2019-05-14T05:08:52.786Z,47.49
2019-05-14T05:09:59.312Z,47.42
2019-05-14T05:11:03.477Z,47.42
2019-05-14T05:12:09.093Z,47.29
2019-05-14T05:13:14.937Z,47.44
2019-05-14T05:14:20.396Z,47.57
2019-05-14T05:15:25.729Z,47.57
2019-05-14T05:16:30.091Z,47.70
2019-05-14T05:17:44.178Z,47.88
2019-05-14T05:18:40.690Z,47.62
2019-05-14T05:19:46.046Z,47.47
2019-05-14T05:20:50.921Z,47.56
2019-05-14T05:21:55.621Z,47.72
2019-05-14T05:23:00.081Z,47.63
2019-05-14T05:24:04.817Z,47.37
2019-05-14T05:25:09.568Z,47.63
2019-05-14T05:26:14.136Z,47.83
2019-05-14T05:27:18.658Z,47.73
2019-05-14T05:28:23.327Z,47.79
2019-05-14T05:29:28.594Z,47.67
2019-05-14T05:30:34.897Z,47.76
2019-05-14T05:31:39.273Z,47.95
2019-05-14T05:32:43.797Z,48.05
2019-05-14T05:33:48.958Z,47.97
2019-05-14T05:34:53.849Z,47.79
2019-05-14T05:35:59.276Z,47.51
2019-05-14T05:37:04.560Z,47.28
2019-05-14T05:38:09.038Z,47.48
2019-05-14T05:39:13.648Z,47.68
2019-05-14T05:40:19.732Z,47.40
2019-05-14T05:41:24.611Z,47.35
2019-05-14T05:42:29.514Z,47.35
2019-05-14T05:43:34.183Z,47.18
2019-05-14T05:44:39.320Z,47.15
2019-05-14T05:45:44.248Z,47.35
2019-05-14T05:46:49.372Z,47.29
2019-05-14T05:47:58.187Z,46.93
2019-05-14T05:49:00.392Z,47.04
2019-05-14T05:50:08.789Z,46.76
2019-05-14T05:51:13.262Z,46.69
2019-05-14T05:52:19.169Z,46.70
2019-05-14T05:53:23.612Z,46.81
2019-05-14T05:54:29.189Z,46.80
2019-05-14T05:55:34.005Z,47.13
2019-05-14T05:56:38.907Z,47.03
2019-05-14T05:57:43.411Z,46.65
2019-05-14T05:58:48.992Z,46.75
2019-05-14T05:59:53.534Z,46.59
2019-05-14T06:00:58.995Z,46.59
2019-05-14T06:02:03.710Z,46.46
2019-05-14T06:03:10.895Z,46.42
2019-05-14T06:04:14.513Z,46.40
2019-05-14T06:05:19.480Z,46.45
2019-05-14T06:06:23.888Z,46.38
2019-05-14T06:07:28.864Z,46.52
2019-05-14T06:08:33.501Z,46.60
2019-05-14T06:09:38.409Z,46.36
2019-05-14T06:10:43.122Z,46.57
2019-05-14T06:11:48.764Z,46.85
2019-05-14T06:12:53.316Z,46.68
2019-05-14T06:13:58.882Z,46.51
2019-05-14T06:15:05.392Z,46.46
2019-05-14T06:16:09.933Z,46.23
2019-05-14T06:17:14.332Z,46.25
2019-05-14T06:18:21.975Z,46.05
2019-05-14T06:19:25.054Z,46.15
2019-05-14T06:20:29.606Z,46.16
2019-05-14T06:21:34.005Z,46.32
2019-05-14T06:22:38.823Z,46.12
2019-05-14T06:23:43.241Z,46.29
2019-05-14T06:24:48.674Z,46.40
2019-05-14T06:25:54.153Z,46.12
2019-05-14T06:26:58.899Z,45.55
2019-05-14T06:28:03.483Z,45.62
2019-05-14T06:29:08.566Z,45.32
2019-05-14T06:30:13.269Z,45.37
2019-05-14T06:31:19.292Z,45.32
2019-05-14T06:32:24.952Z,45.41
2019-05-14T06:33:29.525Z,45.22
2019-05-14T06:34:34.150Z,45.25
2019-05-14T06:35:39.621Z,45.23
2019-05-14T06:36:44.420Z,45.43
2019-05-14T06:37:49.146Z,45.64
2019-05-14T06:38:53.589Z,45.53
2019-05-14T06:39:58.523Z,45.71
2019-05-14T06:41:03.002Z,45.68
2019-05-14T06:42:08.821Z,45.31
2019-05-14T06:43:13.299Z,45.05
2019-05-14T06:44:18.729Z,45.04
2019-05-14T06:45:23.330Z,45.29
2019-05-14T06:46:28.391Z,45.55
2019-05-14T06:47:33.031Z,45.67
2019-05-14T06:48:39.575Z,45.55
2019-05-14T06:49:43.718Z,45.33
2019-05-14T06:50:50.453Z,44.87
2019-05-14T06:51:54.885Z,45.07
2019-05-14T06:52:59.426Z,44.39
2019-05-14T06:54:04.723Z,44.81
2019-05-14T06:55:09.277Z,45.00
2019-05-14T06:56:13.644Z,44.77
2019-05-14T06:57:18.725Z,44.79
2019-05-14T06:58:23.083Z,44.63
2019-05-14T06:59:28.801Z,44.49
2019-05-14T07:00:33.335Z,44.53
2019-05-14T07:01:38.464Z,44.07
2019-05-14T07:02:44.314Z,44.25
2019-05-14T07:03:49.362Z,44.17
2019-05-14T07:04:53.828Z,44.22
2019-05-14T07:05:59.549Z,44.26
2019-05-14T07:07:05.189Z,44.47
2019-05-14T07:08:09.773Z,44.62
2019-05-14T07:09:14.207Z,44.38
2019-05-14T07:10:19.593Z,43.88
2019-05-14T07:11:25.365Z,43.66
2019-05-14T07:12:29.990Z,43.62
2019-05-14T07:13:34.556Z,43.14
2019-05-14T07:14:39.156Z,43.03
2019-05-14T07:15:43.465Z,43.05
2019-05-14T07:16:48.647Z,42.46
2019-05-14T07:17:53.250Z,42.58
2019-05-14T07:18:59.080Z,42.65
2019-05-14T07:20:05.220Z,42.89
2019-05-14T07:21:09.757Z,43.21
2019-05-14T07:22:14.154Z,42.56
2019-05-14T07:23:19.426Z,43.08
2019-05-14T07:24:23.985Z,42.78
2019-05-14T07:25:28.819Z,42.25
2019-05-14T07:26:34.286Z,41.13
2019-05-14T07:27:39.453Z,41.19
2019-05-14T07:28:43.895Z,41.19
2019-05-14T07:29:49.347Z,40.95
2019-05-14T07:30:54.895Z,41.03
2019-05-14T07:31:59.484Z,41.50
2019-05-14T07:33:04.871Z,42.04
2019-05-14T07:34:09.408Z,41.61
2019-05-14T07:35:14.252Z,41.12
2019-05-14T07:36:19.172Z,41.12
2019-05-14T07:37:24.675Z,41.63
2019-05-14T07:38:29.231Z,41.42
2019-05-14T07:39:33.582Z,41.25
2019-05-14T07:40:39.427Z,41.41
2019-05-14T07:41:43.783Z,41.88
2019-05-14T07:42:48.846Z,41.84
2019-05-14T07:43:53.348Z,41.71
2019-05-14T07:44:58.898Z,41.79
2019-05-14T07:46:03.508Z,41.69
2019-05-14T07:47:09.371Z,40.92
2019-05-14T07:48:13.813Z,40.65
2019-05-14T07:49:19.392Z,40.72
2019-05-14T07:50:23.897Z,41.20
2019-05-14T07:51:28.747Z,41.52
2019-05-14T07:52:33.109Z,41.60
2019-05-14T07:53:41.605Z,41.11
2019-05-14T07:54:43.750Z,39.11
2019-05-14T07:55:49.306Z,39.72
2019-05-14T07:56:53.946Z,38.49
2019-05-14T07:57:59.034Z,39.47
2019-05-14T07:59:03.460Z,38.85
2019-05-14T08:00:09.108Z,37.77
2019-05-14T08:01:13.532Z,38.97
2019-05-14T08:02:19.595Z,38.29
2019-05-14T08:03:24.196Z,38.85
2019-05-14T08:04:29.167Z,37.52
2019-05-14T08:05:33.578Z,37.72
2019-05-14T08:06:39.363Z,36.91
2019-05-14T08:07:44.843Z,37.73
2019-05-14T08:08:49.614Z,38.77
2019-05-14T08:09:54.988Z,38.28
2019-05-14T08:11:01.871Z,37.15
2019-05-14T08:12:06.360Z,36.69
2019-05-14T08:13:10.969Z,37.78
2019-05-14T08:14:15.395Z,38.24
2019-05-14T08:15:22.507Z,37.49
2019-05-14T08:16:28.603Z,37.84
2019-05-14T08:17:32.536Z,38.09
2019-05-14T08:18:39.310Z,38.06
2019-05-14T08:19:43.128Z,38.08
2019-05-14T08:20:48.631Z,36.86
2019-05-14T08:21:53.441Z,36.11
2019-05-14T08:22:58.306Z,36.71
2019-05-14T08:24:02.916Z,37.08
2019-05-14T08:25:09.353Z,36.52
2019-05-14T08:26:15.030Z,37.00
2019-05-14T08:27:19.391Z,37.46
2019-05-14T08:28:24.143Z,37.08
2019-05-14T08:29:28.757Z,36.77
2019-05-14T08:30:33.455Z,36.52
2019-05-14T08:31:38.464Z,35.82
2019-05-14T08:32:43.025Z,35.86
2019-05-14T08:33:48.877Z,36.00
2019-05-14T08:34:53.748Z,35.66
2019-05-14T08:35:58.386Z,36.05
2019-05-14T08:37:04.272Z,36.46
2019-05-14T08:38:12.019Z,36.68
2019-05-14T08:39:18.392Z,36.96
2019-05-14T08:40:21.662Z,37.22
2019-05-14T08:41:28.649Z,37.32
2019-05-14T08:42:33.965Z,37.00
2019-05-14T08:43:39.667Z,36.80
2019-05-14T08:44:44.297Z,36.99
2019-05-14T08:45:48.988Z,35.88
2019-05-14T08:46:53.382Z,36.64
2019-05-14T08:47:58.664Z,35.82
2019-05-14T08:49:04.934Z,35.51
2019-05-14T08:50:09.524Z,35.21
2019-05-14T08:51:14.024Z,34.98
2019-05-14T08:52:19.206Z,34.12
2019-05-14T08:53:23.867Z,34.59
2019-05-14T08:54:28.640Z,33.80
2019-05-14T08:55:32.974Z,33.87
2019-05-14T08:56:38.884Z,33.92
2019-05-14T08:57:44.460Z,34.37
2019-05-14T08:58:49.600Z,32.83
2019-05-14T08:59:54.156Z,33.27
2019-05-14T09:00:58.967Z,33.32
2019-05-14T09:02:06.540Z,33.87
2019-05-14T09:03:09.605Z,34.50
2019-05-14T09:04:13.982Z,34.98
2019-05-14T09:05:18.692Z,34.66
2019-05-14T09:06:23.206Z,34.01
2019-05-14T09:07:28.976Z,32.76
2019-05-14T09:08:33.457Z,31.77
2019-05-14T09:09:38.300Z,32.12
2019-05-14T09:10:42.916Z,31.71
2019-05-14T09:11:50.398Z,32.29
2019-05-14T09:12:53.595Z,32.65
2019-05-14T09:13:59.462Z,33.43
2019-05-14T09:15:05.843Z,33.44
2019-05-14T09:16:10.507Z,32.79
2019-05-14T09:17:15.066Z,31.39
2019-05-14T09:18:19.555Z,31.32
2019-05-14T09:19:23.987Z,30.72
2019-05-14T09:20:29.035Z,30.69
2019-05-14T09:21:33.532Z,30.03
2019-05-14T09:22:39.804Z,30.96
2019-05-14T09:23:44.424Z,31.53
2019-05-14T09:24:49.339Z,31.62
2019-05-14T09:25:54.757Z,32.50
2019-05-14T09:26:59.505Z,32.85
2019-05-14T09:28:04.774Z,32.49
2019-05-14T09:29:19.576Z,32.08
2019-05-14T09:30:15.360Z,31.63
2019-05-14T09:31:20.193Z,31.06
2019-05-14T09:32:24.626Z,30.68
2019-05-14T09:33:29.802Z,30.20
2019-05-14T09:34:35.274Z,30.07
2019-05-14T09:35:39.815Z,30.38
2019-05-14T09:36:44.180Z,30.92
2019-05-14T09:37:51.366Z,30.99
2019-05-14T09:38:54.907Z,30.00
2019-05-14T09:39:59.510Z,29.31
2019-05-14T09:41:10.522Z,29.71
2019-05-14T09:42:10.819Z,29.62
2019-05-14T09:43:18.116Z,29.57
2019-05-14T09:44:22.493Z,29.95
2019-05-14T09:45:28.264Z,29.59
2019-05-14T09:46:32.932Z,29.56
2019-05-14T09:47:38.964Z,29.75
2019-05-14T09:48:43.899Z,29.95
2019-05-14T09:49:49.473Z,29.02
2019-05-14T09:50:54.036Z,30.00
2019-05-14T09:51:58.570Z,30.45
2019-05-14T09:53:03.189Z,30.12
2019-05-14T09:54:08.526Z,29.90
2019-05-14T09:55:13.282Z,30.20
2019-05-14T09:56:18.715Z,30.50
2019-05-14T09:57:23.529Z,30.54
2019-05-14T09:58:28.982Z,30.07
2019-05-14T09:59:33.793Z,29.49
2019-05-14T10:00:39.098Z,29.43
2019-05-14T10:01:44.067Z,29.69
2019-05-14T10:02:49.442Z,29.42
2019-05-14T10:03:54.203Z,29.23
2019-05-14T10:04:59.837Z,29.32
2019-05-14T10:06:05.462Z,29.81
2019-05-14T10:07:09.903Z,28.98
2019-05-14T10:08:14.584Z,29.21
2019-05-14T10:09:18.940Z,29.91
2019-05-14T10:10:23.563Z,29.50
2019-05-14T10:11:28.779Z,29.23
2019-05-14T10:12:42.546Z,29.49
2019-05-14T10:13:41.043Z,28.90
2019-05-14T10:14:48.535Z,28.86
2019-05-14T10:15:52.202Z,28.75
2019-05-14T10:16:58.355Z,28.97
2019-05-14T10:18:03.053Z,29.27
2019-05-14T10:19:07.654Z,29.40
2019-05-14T10:20:12.012Z,29.28
2019-05-14T10:21:18.992Z,28.95
2019-05-14T10:22:22.721Z,28.64
2019-05-14T10:23:28.410Z,28.63
2019-05-14T10:24:33.032Z,28.71
2019-05-14T10:25:40.180Z,28.76
2019-05-14T10:26:43.885Z,28.71
2019-05-14T10:27:48.704Z,28.71
2019-05-14T10:28:54.001Z,28.53
2019-05-14T10:29:58.958Z,28.27
2019-05-14T10:31:03.857Z,28.15
2019-05-14T10:32:09.042Z,28.11
2019-05-14T10:33:15.039Z,27.15
2019-05-14T10:34:19.900Z,27.09
2019-05-14T10:35:25.120Z,27.39
2019-05-14T10:36:30.191Z,27.02
2019-05-14T10:37:35.693Z,27.08
2019-05-14T10:38:40.230Z,27.50
2019-05-14T10:39:44.804Z,28.42
2019-05-14T10:40:49.434Z,27.70
2019-05-14T10:41:53.789Z,27.30
2019-05-14T10:42:58.366Z,27.27
2019-05-14T10:44:04.528Z,26.65
2019-05-14T10:45:12.673Z,26.73
2019-05-14T10:46:15.171Z,26.76
2019-05-14T10:47:19.713Z,26.53
2019-05-14T10:48:24.460Z,28.08
2019-05-14T10:49:29.955Z,27.75
2019-05-14T10:50:44.814Z,27.71
2019-05-14T10:51:40.905Z,27.13
2019-05-14T10:52:45.341Z,26.41
2019-05-14T10:53:50.162Z,26.44
2019-05-14T10:54:56.149Z,26.41
2019-05-14T10:56:00.844Z,26.10
2019-05-14T10:57:05.261Z,26.31
2019-05-14T10:58:09.868Z,25.96
2019-05-14T10:59:14.475Z,26.26
2019-05-14T11:00:19.776Z,26.04
2019-05-14T11:01:24.201Z,26.48
2019-05-14T11:02:29.280Z,26.98
2019-05-14T11:03:33.682Z,26.31
2019-05-14T11:04:39.096Z,25.44
2019-05-14T11:05:43.790Z,25.26
2019-05-14T11:06:49.106Z,25.15
2019-05-14T11:07:53.624Z,25.46
2019-05-14T11:08:58.171Z,25.84
2019-05-14T11:10:02.666Z,25.69
2019-05-14T11:11:10.265Z,25.61
2019-05-14T11:12:13.535Z,25.43
2019-05-14T11:13:18.940Z,25.34
2019-05-14T11:14:23.654Z,25.31
2019-05-14T11:15:28.537Z,25.62
2019-05-14T11:16:33.141Z,24.39
2019-05-14T11:17:40.480Z,24.83
2019-05-14T11:18:43.928Z,25.53
2019-05-14T11:19:48.468Z,25.63
2019-05-14T11:20:52.835Z,25.79
2019-05-14T11:21:57.897Z,25.04
2019-05-14T11:23:02.426Z,25.84
2019-05-14T11:24:09.434Z,25.89
2019-05-14T11:25:13.177Z,26.26
2019-05-14T11:26:20.309Z,25.75
2019-05-14T11:27:24.669Z,25.03
2019-05-14T11:28:29.397Z,24.49
2019-05-14T11:29:33.890Z,25.00
2019-05-14T11:30:39.241Z,25.19
2019-05-14T11:31:43.691Z,25.56
2019-05-14T11:32:49.189Z,25.97
2019-05-14T11:33:53.768Z,25.97
2019-05-14T11:34:59.393Z,25.42
2019-05-14T11:36:03.763Z,25.89
2019-05-14T11:37:08.663Z,26.17
2019-05-14T11:38:28.802Z,25.66
2019-05-14T11:39:19.639Z,24.99
2019-05-14T11:40:24.761Z,24.56
2019-05-14T11:41:29.572Z,24.73
2019-05-14T11:42:34.036Z,24.68
2019-05-14T11:43:39.796Z,24.80
2019-05-14T11:44:44.514Z,24.81
2019-05-14T11:45:49.025Z,25.63
2019-05-14T11:46:57.826Z,25.22
2019-05-14T11:47:59.731Z,24.91
2019-05-14T11:49:04.934Z,24.72
2019-05-14T11:50:10.063Z,25.38
2019-05-14T11:51:14.593Z,24.53
2019-05-14T11:52:19.164Z,25.08
2019-05-14T11:53:23.670Z,24.91
2019-05-14T11:54:29.193Z,24.91
2019-05-14T11:55:33.717Z,24.47
2019-05-14T11:56:41.948Z,25.08
2019-05-14T11:57:44.451Z,24.36
2019-05-14T11:58:49.065Z,24.40
2019-05-14T11:59:53.760Z,23.67
2019-05-14T12:00:58.598Z,23.65
2019-05-14T12:02:03.026Z,23.19
2019-05-14T12:03:09.245Z,22.99
2019-05-14T12:04:13.641Z,23.19
2019-05-14T12:05:18.945Z,23.40
2019-05-14T12:06:23.649Z,23.75
2019-05-14T12:07:28.188Z,24.33
2019-05-14T12:08:32.679Z,24.65
2019-05-14T12:09:39.145Z,24.80
2019-05-14T12:10:43.834Z,24.72
2019-05-14T12:11:48.453Z,24.34
2019-05-14T12:12:52.813Z,23.78
2019-05-14T12:13:59.911Z,23.27
2019-05-14T12:15:04.585Z,23.70
2019-05-14T12:16:09.127Z,23.95
2019-05-14T12:17:13.606Z,24.52
2019-05-14T12:18:18.685Z,24.74
2019-05-14T12:19:23.148Z,25.04
2019-05-14T12:20:29.684Z,25.26
2019-05-14T12:21:33.748Z,24.37
2019-05-14T12:22:39.261Z,24.09
2019-05-14T12:23:44.077Z,24.10
2019-05-14T12:24:49.395Z,24.62
2019-05-14T12:25:55.404Z,24.95
2019-05-14T12:27:00.026Z,24.66
2019-05-14T12:28:05.017Z,24.68
2019-05-14T12:29:10.019Z,23.98
2019-05-14T12:30:14.705Z,23.51
2019-05-14T12:31:19.246Z,23.03
2019-05-14T12:32:23.687Z,23.33
2019-05-14T12:33:30.830Z,24.15
2019-05-14T12:34:34.277Z,24.66
2019-05-14T12:35:40.247Z,24.74
2019-05-14T12:36:44.846Z,24.81
2019-05-14T12:37:49.429Z,25.00
2019-05-14T12:38:53.863Z,25.17
2019-05-14T12:39:59.090Z,24.93
2019-05-14T12:41:03.834Z,24.48
2019-05-14T12:42:10.610Z,24.23
2019-05-14T12:43:14.698Z,24.26
2019-05-14T12:44:19.785Z,23.84
2019-05-14T12:45:24.296Z,24.38
2019-05-14T12:46:29.587Z,24.54
2019-05-14T12:47:34.069Z,24.20
2019-05-14T12:48:39.154Z,23.40
2019-05-14T12:49:43.689Z,23.26
2019-05-14T12:50:49.026Z,23.55
2019-05-14T12:51:53.505Z,24.44
2019-05-14T12:52:58.867Z,24.44
2019-05-14T12:54:03.425Z,24.20
2019-05-14T12:55:09.117Z,24.32
2019-05-14T12:56:14.023Z,24.00
2019-05-14T12:57:19.636Z,23.52
2019-05-14T12:58:24.029Z,22.87
2019-05-14T12:59:28.686Z,23.22
2019-05-14T13:00:33.064Z,23.49
2019-05-14T13:01:37.805Z,24.35
2019-05-14T13:02:42.162Z,25.36
2019-05-14T13:03:48.524Z,25.60
2019-05-14T13:04:52.977Z,25.85
2019-05-14T13:05:58.603Z,25.61
2019-05-14T13:07:03.006Z,25.66
2019-05-14T13:08:11.257Z,25.08
2019-05-14T13:09:13.737Z,24.62
2019-05-14T13:10:18.877Z,24.28
2019-05-14T13:11:23.461Z,24.21
2019-05-14T13:12:29.752Z,24.33
2019-05-14T13:13:34.215Z,24.56
2019-05-14T13:14:39.600Z,24.45
2019-05-14T13:15:44.135Z,24.44
2019-05-14T13:16:48.849Z,24.19
2019-05-14T13:17:53.246Z,24.03
2019-05-14T13:18:59.840Z,23.89
2019-05-14T13:20:13.187Z,23.83
2019-05-14T13:21:14.402Z,24.32
2019-05-14T13:22:30.272Z,24.85
2019-05-14T13:23:25.061Z,25.24
2019-05-14T13:24:29.442Z,24.60
2019-05-14T13:25:34.055Z,24.22
2019-05-14T13:26:38.980Z,24.25
2019-05-14T13:27:43.803Z,24.41
2019-05-14T13:28:50.783Z,24.13
2019-05-14T13:29:54.636Z,24.43
2019-05-14T13:30:59.762Z,23.92
2019-05-14T13:32:05.217Z,24.35
2019-05-14T13:33:09.566Z,24.51
2019-05-14T13:34:14.132Z,24.28
2019-05-14T13:35:19.618Z,24.43
2019-05-14T13:36:24.503Z,24.17
2019-05-14T13:37:28.930Z,23.87
2019-05-14T13:38:33.470Z,24.06
2019-05-14T13:39:39.913Z,23.75
2019-05-14T13:40:45.641Z,23.64
2019-05-14T13:41:50.022Z,23.57
2019-05-14T13:42:54.541Z,23.90
2019-05-14T13:43:59.070Z,23.48
2019-05-14T13:45:10.223Z,23.70
2019-05-14T13:46:15.311Z,23.64
2019-05-14T13:47:21.060Z,24.05
2019-05-14T13:48:25.542Z,24.34
2019-05-14T13:49:30.435Z,24.26
2019-05-14T13:50:34.846Z,24.27
2019-05-14T13:51:39.338Z,24.63
2019-05-14T13:52:58.397Z,24.31
2019-05-14T13:53:50.235Z,24.37
2019-05-14T13:54:54.603Z,23.95
2019-05-14T13:55:59.198Z,24.03
2019-05-14T13:57:04.508Z,24.11
2019-05-14T13:58:09.696Z,23.88